createdAt,value
2022-10-11T00:01:41.422Z,99735.91
2022-10-11T00:04:08.104Z,99725.78
2022-10-11T00:06:34.734Z,99731.38
2022-10-11T00:09:01.302Z,99730.31
2022-10-11T00:11:27.815Z,99734.50
2022-10-11T00:13:54.442Z,99734.31
2022-10-11T00:16:21.328Z,99735.63
2022-10-11T00:18:47.823Z,99738.59
2022-10-11T00:21:16.108Z,99727.47
2022-10-11T00:23:43.352Z,99734.38
2022-10-11T00:26:10.937Z,99724.88
2022-10-11T00:28:38.063Z,99728.16
2022-10-11T00:31:10.321Z,99723.19
2022-10-11T00:33:37.334Z,99730.00
2022-10-11T00:36:04.780Z,99721.16
2022-10-11T00:38:32.080Z,99721.16
2022-10-11T00:40:59.946Z,99717.03
2022-10-11T00:43:30.282Z,99721.31
2022-10-11T00:45:56.767Z,99725.25
2022-10-11T00:48:47.838Z,99727.38
2022-10-11T00:51:20.799Z,99729.13
2022-10-11T00:53:51.068Z,99736.53
2022-10-11T00:56:25.028Z,99723.56
2022-10-11T00:58:52.826Z,99725.78
2022-10-11T01:01:19.730Z,99731.38
2022-10-11T01:03:46.605Z,99734.06
2022-10-11T01:06:13.106Z,99739.03
2022-10-11T01:08:39.977Z,99740.00
2022-10-11T01:11:06.810Z,99745.25
2022-10-11T01:13:48.334Z,99739.47
2022-10-11T01:16:50.212Z,99746.66
2022-10-11T01:19:44.530Z,99746.72
2022-10-11T01:22:35.413Z,99750.81
2022-10-11T01:25:22.893Z,99744.66
2022-10-11T01:28:02.147Z,99746.53
2022-10-11T01:30:38.467Z,99745.63
2022-10-11T01:33:16.837Z,99746.09
2022-10-11T01:36:19.948Z,99748.22
2022-10-11T01:38:58.661Z,99743.69
2022-10-11T01:41:29.757Z,99743.41
2022-10-11T01:44:00.152Z,99744.75
2022-10-11T01:46:28.471Z,99747.50
2022-10-11T01:48:58.002Z,99748.22
2022-10-11T01:51:29.168Z,99743.13
2022-10-11T01:54:04.873Z,99740.03
2022-10-11T01:56:53.717Z,99743.13
2022-10-11T01:59:41.198Z,99745.53
2022-10-11T02:02:45.785Z,99744.75
2022-10-11T02:05:35.319Z,99747.09
2022-10-11T02:08:04.605Z,99750.03
2022-10-11T02:10:46.333Z,99750.69
2022-10-11T02:13:15.598Z,99751.56
2022-10-11T02:15:44.655Z,99755.84
2022-10-11T02:18:16.829Z,99757.44
2022-10-11T02:20:45.451Z,99754.50
2022-10-11T02:23:22.785Z,99754.50
2022-10-11T02:25:51.106Z,99752.88
2022-10-11T02:28:23.620Z,99762.41
2022-10-11T02:30:52.358Z,99766.59
2022-10-11T02:33:26.445Z,99762.09
2022-10-11T02:36:00.229Z,99764.25
2022-10-11T02:38:43.941Z,99757.16
2022-10-11T02:41:23.381Z,99769.16
2022-10-11T02:43:57.640Z,99770.38
2022-10-11T02:46:26.455Z,99775.69
2022-10-11T02:48:53.995Z,99770.38
2022-10-11T02:51:20.681Z,99774.50
2022-10-11T02:53:47.253Z,99774.16
2022-10-11T02:56:13.735Z,99774.25
2022-10-11T02:58:40.251Z,99775.66
2022-10-11T03:01:06.748Z,99779.88
2022-10-11T03:03:33.228Z,99780.69
2022-10-11T03:06:01.650Z,99781.78
2022-10-11T03:08:28.876Z,99776.88
2022-10-11T03:10:55.686Z,99777.25
2022-10-11T03:13:22.735Z,99772.00
2022-10-11T03:16:02.349Z,99777.78
2022-10-11T03:18:33.734Z,99783.13
2022-10-11T03:21:00.278Z,99784.00
2022-10-11T03:23:26.790Z,99783.56
2022-10-11T03:25:53.366Z,99790.94
2022-10-11T03:28:20.236Z,99796.44
2022-10-11T03:30:51.406Z,99795.84
2022-10-11T03:33:18.905Z,99796.53
2022-10-11T03:35:46.932Z,99796.25
2022-10-11T03:38:14.993Z,99801.50
2022-10-11T03:40:43.035Z,99795.69
2022-10-11T03:43:10.067Z,99795.16
2022-10-11T03:45:36.761Z,99793.44
2022-10-11T03:48:03.950Z,99801.53
2022-10-11T03:50:31.294Z,99809.78
2022-10-11T03:52:57.997Z,99812.16
2022-10-11T03:55:24.735Z,99804.16
2022-10-11T03:57:51.287Z,99814.28
2022-10-11T04:00:17.920Z,99809.78
2022-10-11T04:02:44.488Z,99806.88
2022-10-11T04:05:12.594Z,99815.16
2022-10-11T04:07:39.994Z,99809.34
2022-10-11T04:10:07.453Z,99817.91
2022-10-11T04:12:34.394Z,99820.00
2022-10-11T04:15:00.996Z,99817.22
2022-10-11T04:17:27.508Z,99815.28
2022-10-11T04:19:54.019Z,99822.13
2022-10-11T04:22:20.520Z,99810.91
2022-10-11T04:24:47.283Z,99818.72
2022-10-11T04:27:13.836Z,99825.94
2022-10-11T04:29:40.360Z,99827.22
2022-10-11T04:32:06.915Z,99825.84
2022-10-11T04:34:33.466Z,99825.31
2022-10-11T04:36:59.970Z,99824.88
2022-10-11T04:39:26.523Z,99820.03
2022-10-11T04:41:53.036Z,99823.72
2022-10-11T04:44:19.559Z,99822.34
2022-10-11T04:46:46.134Z,99823.59
2022-10-11T04:49:12.723Z,99820.41
2022-10-11T04:51:39.240Z,99823.28
2022-10-11T04:54:05.826Z,99821.78
2022-10-11T04:56:32.343Z,99817.09
2022-10-11T04:58:58.838Z,99819.03
2022-10-11T05:01:25.493Z,99813.16
2022-10-11T05:03:52.014Z,99823.34
2022-10-11T05:06:19.042Z,99828.97
2022-10-11T05:08:45.595Z,99832.88
2022-10-11T05:11:15.924Z,99829.66
2022-10-11T05:13:43.955Z,99843.75
2022-10-11T05:16:11.779Z,99845.59
2022-10-11T05:18:39.354Z,99846.28
2022-10-11T05:21:09.194Z,99854.28
2022-10-11T05:23:36.717Z,99853.63
2022-10-11T05:26:04.441Z,99851.78
2022-10-11T05:28:31.669Z,99856.97
2022-10-11T05:30:58.779Z,99858.81
2022-10-11T05:33:25.868Z,99854.31
2022-10-11T05:35:52.927Z,99861.44
2022-10-11T05:38:19.463Z,99862.22
2022-10-11T05:40:46.206Z,99861.19
2022-10-11T05:43:12.772Z,99868.06
2022-10-11T05:45:40.945Z,99871.28
2022-10-11T05:48:08.127Z,99872.38
2022-10-11T05:50:35.058Z,99868.72
2022-10-11T05:53:02.230Z,99878.88
2022-10-11T05:55:28.777Z,99883.47
2022-10-11T05:57:56.664Z,99888.78
2022-10-11T06:00:24.626Z,99887.75
2022-10-11T06:02:51.135Z,99891.88
2022-10-11T06:05:17.711Z,99896.69
2022-10-11T06:07:44.774Z,99894.19
2022-10-11T06:10:11.348Z,99901.31
2022-10-11T06:12:38.753Z,99906.06
2022-10-11T06:15:06.376Z,99909.50
2022-10-11T06:17:32.897Z,99900.44
2022-10-11T06:19:59.408Z,99909.22
2022-10-11T06:22:26.706Z,99913.00
2022-10-11T06:24:53.193Z,99908.78
2022-10-11T06:27:19.684Z,99916.06
2022-10-11T06:29:46.166Z,99915.59
2022-10-11T06:32:13.394Z,99923.47
2022-10-11T06:34:39.936Z,99928.34
2022-10-11T06:37:06.706Z,99929.38
2022-10-11T06:39:33.652Z,99940.34
2022-10-11T06:42:00.147Z,99934.56
2022-10-11T06:44:26.934Z,99932.19
2022-10-11T06:46:53.462Z,99943.91
2022-10-11T06:49:23.316Z,99935.69
2022-10-11T06:51:50.760Z,99942.56
2022-10-11T06:54:17.414Z,99932.56
2022-10-11T06:56:45.638Z,99944.88
2022-10-11T06:59:13.405Z,99948.94
2022-10-11T07:01:40.042Z,99945.56
2022-10-11T07:04:07.088Z,99950.34
2022-10-11T07:06:37.146Z,99963.84
2022-10-11T07:09:04.422Z,99963.69
2022-10-11T07:11:31.044Z,99966.38
2022-10-11T07:14:00.352Z,99964.00
2022-10-11T07:16:28.046Z,99970.66
2022-10-11T07:19:00.885Z,99972.84
2022-10-11T07:21:29.370Z,99960.72
2022-10-11T07:23:55.904Z,99970.09
2022-10-11T07:26:22.428Z,99966.09
2022-10-11T07:28:49.085Z,99963.66
2022-10-11T07:31:19.172Z,99969.78
2022-10-11T07:33:46.100Z,99967.84
2022-10-11T07:36:13.405Z,99969.16
2022-10-11T07:38:41.820Z,99966.06
2022-10-11T07:41:08.908Z,99979.78
2022-10-11T07:43:36.806Z,99968.06
2022-10-11T07:46:04.998Z,99972.59
2022-10-11T07:48:33.575Z,99972.38
2022-10-11T07:51:21.214Z,99979.72
2022-10-11T07:53:49.943Z,99981.41
2022-10-11T07:56:19.501Z,99969.88
2022-10-11T07:58:51.522Z,99969.47
2022-10-11T08:01:18.654Z,99969.84
2022-10-11T08:03:45.344Z,99980.16
2022-10-11T08:06:14.578Z,99964.56
2022-10-11T08:08:41.098Z,99970.13
2022-10-11T08:11:07.972Z,99973.44
2022-10-11T08:13:35.338Z,99975.03
2022-10-11T08:16:09.136Z,99976.22
2022-10-11T08:18:35.660Z,99978.25
2022-10-11T08:21:09.614Z,99986.59
2022-10-11T08:23:36.170Z,99996.53
2022-10-11T08:26:03.346Z,99988.16
2022-10-11T08:28:30.324Z,99982.97
2022-10-11T08:30:57.080Z,99985.38
2022-10-11T08:33:25.505Z,99978.25
2022-10-11T08:35:53.539Z,99991.78
2022-10-11T08:38:20.751Z,99990.97
2022-10-11T08:40:53.715Z,99987.81
2022-10-11T08:44:06.735Z,100009.31
2022-10-11T08:46:38.811Z,100007.28
2022-10-11T08:49:06.830Z,100008.06
2022-10-11T08:52:02.379Z,100014.09
2022-10-11T08:54:38.593Z,100020.03
2022-10-11T08:57:06.797Z,100022.03
2022-10-11T08:59:42.296Z,100013.28
2022-10-11T09:03:03.140Z,100009.69
2022-10-11T09:05:27.527Z,100000.53
2022-10-11T09:08:08.043Z,100007.31
2022-10-11T09:10:49.504Z,100022.44
2022-10-11T09:13:34.689Z,100005.31
2022-10-11T09:16:31.972Z,100029.22
2022-10-11T09:19:34.454Z,100008.09
2022-10-11T09:22:17.221Z,100007.72
2022-10-11T09:25:15.129Z,100012.47
2022-10-11T09:28:03.137Z,100018.03
2022-10-11T09:30:31.535Z,100021.25
2022-10-11T09:33:19.079Z,100014.06
2022-10-11T09:35:49.643Z,100021.25
2022-10-11T09:38:28.722Z,100020.41
2022-10-11T09:41:16.827Z,100022.44
2022-10-11T09:43:49.421Z,100025.22
2022-10-11T09:46:41.557Z,100012.38
2022-10-11T09:49:13.161Z,100019.53
2022-10-11T09:51:43.349Z,100011.47
2022-10-11T09:54:10.915Z,100020.22
2022-10-11T09:56:42.975Z,100025.63
2022-10-11T09:59:30.058Z,100027.59
2022-10-11T10:02:22.456Z,100017.97
2022-10-11T10:04:57.976Z,100024.28
2022-10-11T10:07:25.567Z,100015.06
2022-10-11T10:09:53.080Z,100018.47
2022-10-11T10:12:23.984Z,100016.59
2022-10-11T10:15:14.218Z,100016.03
2022-10-11T10:17:49.503Z,100018.25
2022-10-11T10:20:34.235Z,100020.69
2022-10-11T10:23:21.984Z,100025.09
2022-10-11T10:25:52.184Z,100019.13
2022-10-11T10:28:25.271Z,100012.88
2022-10-11T10:30:56.877Z,100020.59
2022-10-11T10:33:25.952Z,100023.56
2022-10-11T10:36:00.496Z,100027.28
2022-10-11T10:38:27.614Z,100021.44
2022-10-11T10:41:00.825Z,100019.00
2022-10-11T10:43:33.396Z,100018.00
2022-10-11T10:46:18.499Z,100021.25
2022-10-11T10:49:48.493Z,100010.69
2022-10-11T10:52:26.490Z,100020.13
2022-10-11T10:55:42.945Z,100020.03
2022-10-11T10:58:18.742Z,100018.56
2022-10-11T11:01:20.602Z,100019.31
2022-10-11T11:03:57.002Z,100002.16
2022-10-11T11:06:35.626Z,100018.91
2022-10-11T11:09:21.907Z,100018.88
2022-10-11T11:12:08.267Z,100014.72
2022-10-11T11:14:55.325Z,100008.34
2022-10-11T11:17:37.260Z,100003.41
2022-10-11T11:20:15.712Z,99996.81
2022-10-11T11:23:08.528Z,99999.22
2022-10-11T11:26:10.338Z,100002.66
2022-10-11T11:28:50.223Z,100000.38
2022-10-11T11:31:30.151Z,99987.31
2022-10-11T11:33:56.814Z,99984.91
2022-10-11T11:36:34.700Z,99980.91
2022-10-11T11:39:03.739Z,99994.13
2022-10-11T11:41:50.033Z,99995.56
2022-10-11T11:44:30.093Z,99989.34
2022-10-11T11:47:05.768Z,99985.78
2022-10-11T11:49:37.040Z,99989.91
2022-10-11T11:52:07.158Z,99980.94
2022-10-11T11:54:49.513Z,99986.31
2022-10-11T11:57:41.329Z,99984.34
2022-10-11T12:00:13.962Z,99981.16
2022-10-11T12:02:47.620Z,99975.66
2022-10-11T12:05:18.190Z,99969.78
2022-10-11T12:07:53.005Z,99979.63
2022-10-11T12:10:34.625Z,99972.97
2022-10-11T12:13:29.706Z,99962.59
2022-10-11T12:16:04.569Z,99969.44
2022-10-11T12:18:34.016Z,99958.78
2022-10-11T12:21:34.950Z,99959.94
2022-10-11T12:24:23.692Z,99969.53
2022-10-11T12:26:55.377Z,99976.50
2022-10-11T12:29:40.608Z,99966.66
2022-10-11T12:32:07.064Z,99962.75
2022-10-11T12:34:44.537Z,99973.16
2022-10-11T12:37:19.951Z,99961.84
2022-10-11T12:39:57.052Z,99961.34
2022-10-11T12:42:30.192Z,99961.44
2022-10-11T12:45:23.438Z,99962.72
2022-10-11T12:48:15.030Z,99954.38
2022-10-11T12:50:58.498Z,99961.97
2022-10-11T12:53:35.508Z,99963.97
2022-10-11T12:56:18.420Z,99961.19
2022-10-11T12:58:48.196Z,99958.94
2022-10-11T13:01:23.563Z,99954.59
2022-10-11T13:04:03.543Z,99959.69
2022-10-11T13:06:53.658Z,99948.25
2022-10-11T13:09:31.702Z,99954.81
2022-10-11T13:12:04.450Z,99955.25
2022-10-11T13:14:40.834Z,99961.78
2022-10-11T13:17:32.255Z,99965.69
2022-10-11T13:20:19.192Z,99961.84
2022-10-11T13:22:51.710Z,99961.22
2022-10-11T13:25:21.473Z,99969.63
2022-10-11T13:27:50.194Z,99961.59
2022-10-11T13:30:35.426Z,99959.50
2022-10-11T13:33:20.724Z,99961.91
2022-10-11T13:35:48.014Z,99965.78
2022-10-11T13:38:28.440Z,99961.84
2022-10-11T13:40:57.821Z,99961.38
2022-10-11T13:43:27.797Z,99966.97
2022-10-11T13:45:56.450Z,99960.56
2022-10-11T13:48:24.486Z,99961.38
2022-10-11T13:51:17.930Z,99969.34
2022-10-11T13:54:12.901Z,99963.34
2022-10-11T13:56:49.840Z,99964.81
2022-10-11T13:59:20.674Z,99968.06
2022-10-11T14:01:48.077Z,99962.22
2022-10-11T14:04:17.203Z,99964.19
2022-10-11T14:07:00.171Z,99957.84
2022-10-11T14:09:31.943Z,99960.16
2022-10-11T14:12:25.934Z,99960.59
2022-10-11T14:14:52.817Z,99957.84
2022-10-11T14:17:34.094Z,99969.81
2022-10-11T14:20:12.186Z,99958.66
2022-10-11T14:22:39.434Z,99968.22
2022-10-11T14:25:06.363Z,99966.66
2022-10-11T14:27:33.058Z,99966.34
2022-10-11T14:30:20.392Z,99969.94
2022-10-11T14:32:48.346Z,99965.97
2022-10-11T14:35:21.410Z,99967.59
2022-10-11T14:37:48.154Z,99967.59
2022-10-11T14:40:28.601Z,99966.78
2022-10-11T14:42:55.359Z,99973.13
2022-10-11T14:45:22.277Z,99974.44
2022-10-11T14:47:49.731Z,99970.84
2022-10-11T14:50:28.040Z,99967.63
2022-10-11T14:52:55.612Z,99965.69
2022-10-11T14:55:23.161Z,99959.72
2022-10-11T14:57:49.777Z,99969.28
2022-10-11T15:00:22.452Z,99965.31
2022-10-11T15:02:50.513Z,99968.09
2022-10-11T15:05:17.070Z,99976.13
2022-10-11T15:07:43.755Z,99970.22
2022-10-11T15:10:24.264Z,99972.63
2022-10-11T15:12:52.316Z,99976.63
2022-10-11T15:15:22.795Z,99979.00
2022-10-11T15:17:59.617Z,99987.75
2022-10-11T15:20:46.656Z,99981.41
2022-10-11T15:23:13.816Z,99989.00
2022-10-11T15:25:41.395Z,99987.81
2022-10-11T15:28:14.733Z,99984.22
2022-10-11T15:30:41.855Z,99990.19
2022-10-11T15:33:08.994Z,99996.53
2022-10-11T15:35:35.657Z,99994.91
2022-10-11T15:38:02.224Z,99994.91
2022-10-11T15:40:36.836Z,99993.63
2022-10-11T15:43:04.178Z,99990.03
2022-10-11T15:45:30.879Z,99989.97
2022-10-11T15:47:58.159Z,99996.69
2022-10-11T15:50:34.294Z,100000.56
2022-10-11T15:53:09.775Z,99999.31
2022-10-11T15:55:39.215Z,99994.06
2022-10-11T15:58:16.614Z,99997.47
2022-10-11T16:00:45.407Z,100007.25
2022-10-11T16:03:13.969Z,100000.34
2022-10-11T16:05:41.065Z,100000.91
2022-10-11T16:08:07.971Z,100011.03
2022-10-11T16:10:34.717Z,100015.69
2022-10-11T16:13:02.063Z,100006.00
2022-10-11T16:15:28.945Z,100014.59
2022-10-11T16:17:55.484Z,100008.22
2022-10-11T16:20:24.530Z,100013.75
2022-10-11T16:22:52.767Z,100015.72
2022-10-11T16:25:20.498Z,100020.81
2022-10-11T16:27:47.263Z,100008.09
2022-10-11T16:30:15.595Z,100017.63
2022-10-11T16:32:42.147Z,100016.88
2022-10-11T16:35:09.147Z,100022.09
2022-10-11T16:37:36.383Z,100020.63
2022-10-11T16:40:03.406Z,100024.25
2022-10-11T16:42:29.935Z,100021.56
2022-10-11T16:44:56.693Z,100022.88
2022-10-11T16:47:23.329Z,100020.59
2022-10-11T16:49:49.897Z,100027.41
2022-10-11T16:52:16.499Z,100027.88
2022-10-11T16:54:45.046Z,100029.56
2022-10-11T16:57:13.244Z,100027.19
2022-10-11T16:59:40.341Z,100031.94
2022-10-11T17:02:12.773Z,100032.28
2022-10-11T17:04:39.457Z,100032.22
2022-10-11T17:07:12.259Z,100043.69
2022-10-11T17:09:44.283Z,100033.31
2022-10-11T17:12:15.063Z,100034.03
2022-10-11T17:14:41.826Z,100033.19
2022-10-11T17:17:10.062Z,100033.19
2022-10-11T17:19:45.011Z,100033.53
2022-10-11T17:22:14.055Z,100041.75
2022-10-11T17:24:40.679Z,100036.94
2022-10-11T17:27:07.633Z,100038.56
2022-10-11T17:29:34.586Z,100039.78
2022-10-11T17:32:01.380Z,100042.63
2022-10-11T17:34:27.918Z,100035.97
2022-10-11T17:36:54.475Z,100036.03
2022-10-11T17:39:22.907Z,100035.28
2022-10-11T17:41:49.858Z,100035.69
2022-10-11T17:44:20.051Z,100040.50
2022-10-11T17:46:47.262Z,100032.16
2022-10-11T17:49:14.071Z,100037.38
2022-10-11T17:51:41.416Z,100044.53
2022-10-11T17:54:12.384Z,100046.50
2022-10-11T17:56:41.098Z,100050.03
2022-10-11T17:59:08.648Z,100044.53
2022-10-11T18:01:36.205Z,100056.47
2022-10-11T18:04:04.999Z,100056.53
2022-10-11T18:06:34.290Z,100049.75
2022-10-11T18:09:02.156Z,100058.56
2022-10-11T18:11:29.039Z,100056.19
2022-10-11T18:13:55.860Z,100066.41
2022-10-11T18:16:26.915Z,100060.75
2022-10-11T18:18:54.061Z,100061.84
2022-10-11T18:21:20.649Z,100065.69
2022-10-11T18:23:47.353Z,100071.69
2022-10-11T18:26:17.498Z,100061.75
2022-10-11T18:28:44.969Z,100062.78
2022-10-11T18:31:15.078Z,100067.03
2022-10-11T18:33:43.100Z,100072.94
2022-10-11T18:36:13.285Z,100064.63
2022-10-11T18:38:43.913Z,100073.50
2022-10-11T18:41:11.793Z,100073.69
2022-10-11T18:43:38.536Z,100074.81
2022-10-11T18:46:11.267Z,100079.56
2022-10-11T18:48:42.393Z,100081.94
2022-10-11T18:51:11.832Z,100074.88
2022-10-11T18:53:38.645Z,100077.25
2022-10-11T18:56:07.428Z,100075.63
2022-10-11T18:58:36.424Z,100073.28
2022-10-11T19:01:08.653Z,100074.00
2022-10-11T19:03:36.068Z,100074.75
2022-10-11T19:06:08.635Z,100071.56
2022-10-11T19:08:35.462Z,100067.63
2022-10-11T19:11:07.024Z,100068.81
2022-10-11T19:13:34.742Z,100068.47
2022-10-11T19:16:09.720Z,100077.25
2022-10-11T19:18:40.417Z,100066.56
2022-10-11T19:21:12.608Z,100075.63
2022-10-11T19:23:44.342Z,100066.50
2022-10-11T19:26:15.275Z,100080.47
2022-10-11T19:28:42.561Z,100065.84
2022-10-11T19:31:11.602Z,100066.16
2022-10-11T19:33:38.290Z,100068.59
2022-10-11T19:36:06.728Z,100076.91
2022-10-11T19:38:34.748Z,100075.69
2022-10-11T19:41:01.801Z,100072.94
2022-10-11T19:43:28.425Z,100078.50
2022-10-11T19:46:09.467Z,100071.72
2022-10-11T19:48:38.070Z,100076.47
2022-10-11T19:51:11.723Z,100074.09
2022-10-11T19:53:38.334Z,100077.25
2022-10-11T19:56:12.790Z,100074.09
2022-10-11T19:58:40.353Z,100083.56
2022-10-11T20:01:13.424Z,100084.38
2022-10-11T20:03:39.980Z,100083.56
2022-10-11T20:06:07.970Z,100084.38
2022-10-11T20:08:35.720Z,100089.13
2022-10-11T20:11:04.760Z,100091.53
2022-10-11T20:13:34.857Z,100091.56
2022-10-11T20:16:06.999Z,100091.97
2022-10-11T20:18:33.921Z,100084.47
2022-10-11T20:21:05.717Z,100084.59
2022-10-11T20:23:33.488Z,100085.84
2022-10-11T20:26:04.782Z,100090.25
2022-10-11T20:28:32.678Z,100085.31
2022-10-11T20:31:00.569Z,100089.09
2022-10-11T20:33:29.812Z,100089.41
2022-10-11T20:36:01.353Z,100084.09
2022-10-11T20:38:28.974Z,100084.84
2022-10-11T20:40:55.828Z,100086.00
2022-10-11T20:43:22.906Z,100087.63
2022-10-11T20:46:00.801Z,100077.34
2022-10-11T20:48:27.792Z,100080.47
2022-10-11T20:50:55.243Z,100082.06
2022-10-11T20:53:22.492Z,100085.09
2022-10-11T20:55:49.607Z,100081.81
2022-10-11T20:58:16.801Z,100090.84
2022-10-11T21:00:43.622Z,100083.38
2022-10-11T21:03:10.705Z,100077.06
2022-10-11T21:05:37.254Z,100079.53
2022-10-11T21:08:04.030Z,100078.66
2022-10-11T21:10:30.995Z,100080.97
2022-10-11T21:12:57.653Z,100077.75
2022-10-11T21:15:24.275Z,100078.16
2022-10-11T21:17:51.733Z,100081.34
2022-10-11T21:20:18.553Z,100081.41
2022-10-11T21:22:45.056Z,100082.53
2022-10-11T21:25:11.574Z,100089.16
2022-10-11T21:27:38.072Z,100087.59
2022-10-11T21:30:04.899Z,100086.03
2022-10-11T21:32:31.550Z,100082.84
2022-10-11T21:34:58.339Z,100084.31
2022-10-11T21:37:24.865Z,100085.38
2022-10-11T21:39:51.366Z,100080.31
2022-10-11T21:42:17.901Z,100075.75
2022-10-11T21:44:44.631Z,100081.97
2022-10-11T21:47:11.189Z,100086.78
2022-10-11T21:49:37.735Z,100074.06
2022-10-11T21:52:05.199Z,100077.22
2022-10-11T21:54:31.691Z,100077.97
2022-10-11T21:56:58.627Z,100072.84
2022-10-11T21:59:25.161Z,100075.94
2022-10-11T22:01:51.702Z,100070.69
2022-10-11T22:04:18.363Z,100070.16
2022-10-11T22:06:44.851Z,100076.84
2022-10-11T22:09:11.410Z,100064.59
2022-10-11T22:11:38.179Z,100069.28
2022-10-11T22:14:05.338Z,100062.38
2022-10-11T22:16:33.659Z,100066.78
2022-10-11T22:19:00.219Z,100069.91
2022-10-11T22:21:26.763Z,100076.63
2022-10-11T22:23:54.809Z,100071.09
2022-10-11T22:26:24.070Z,100070.19
2022-10-11T22:28:50.652Z,100067.78
2022-10-11T22:31:19.533Z,100060.13
2022-10-11T22:33:46.328Z,100077.06
2022-10-11T22:36:13.845Z,100074.56
2022-10-11T22:38:42.275Z,100076.47
2022-10-11T22:41:09.447Z,100072.00
2022-10-11T22:43:36.001Z,100083.84
2022-10-11T22:46:03.236Z,100084.16
2022-10-11T22:48:29.821Z,100082.53
2022-10-11T22:50:56.319Z,100083.69
2022-10-11T22:53:22.818Z,100084.44
2022-10-11T22:55:49.305Z,100092.00
2022-10-11T22:58:15.819Z,100093.06
2022-10-11T23:00:42.631Z,100085.88
2022-10-11T23:03:16.670Z,100091.56
2022-10-11T23:05:43.475Z,100092.63
2022-10-11T23:08:10.132Z,100089.00
2022-10-11T23:10:40.437Z,100090.31
2022-10-11T23:13:07.044Z,100091.06
2022-10-11T23:15:33.605Z,100086.25
2022-10-11T23:18:00.174Z,100095.69
2022-10-11T23:20:26.702Z,100088.50
2022-10-11T23:22:53.185Z,100089.63
2022-10-11T23:25:19.673Z,100088.59
2022-10-11T23:27:46.158Z,100085.81
2022-10-11T23:30:13.435Z,100092.59
2022-10-11T23:32:39.936Z,100088.22
2022-10-11T23:35:06.724Z,100088.50
2022-10-11T23:37:33.279Z,100090.94
2022-10-11T23:39:59.786Z,100085.00
2022-10-11T23:42:26.294Z,100084.16
2022-10-11T23:44:54.124Z,100084.50
2022-10-11T23:47:20.663Z,100091.53
2022-10-11T23:49:47.166Z,100087.81
2022-10-11T23:52:13.662Z,100086.59
2022-10-11T23:54:40.161Z,100088.13
2022-10-11T23:57:06.759Z,100085.78
2022-10-11T23:59:33.230Z,100089.69
